sensor_id;sensor_type;location;lat;lon;timestamp;temperature;humidity
71297;SHT31;59082;50.658;4.608;2022-07-29T00:00:28;18.49;70.30
71297;SHT31;59082;50.658;4.608;2022-07-29T00:02:54;18.45;70.47
71297;SHT31;59082;50.658;4.608;2022-07-29T00:05:19;18.43;70.48
71297;SHT31;59082;50.658;4.608;2022-07-29T00:07:45;18.38;70.57
71297;SHT31;59082;50.658;4.608;2022-07-29T00:10:11;18.34;70.76
71297;SHT31;59082;50.658;4.608;2022-07-29T00:12:36;18.34;70.97
71297;SHT31;59082;50.658;4.608;2022-07-29T00:15:03;18.31;71.06
71297;SHT31;59082;50.658;4.608;2022-07-29T00:17:29;18.28;71.45
71297;SHT31;59082;50.658;4.608;2022-07-29T00:19:54;18.30;71.22
71297;SHT31;59082;50.658;4.608;2022-07-29T00:22:20;18.24;71.15
71297;SHT31;59082;50.658;4.608;2022-07-29T00:24:47;18.23;71.30
71297;SHT31;59082;50.658;4.608;2022-07-29T00:27:13;18.14;71.62
71297;SHT31;59082;50.658;4.608;2022-07-29T00:29:39;18.13;71.54
71297;SHT31;59082;50.658;4.608;2022-07-29T00:32:05;18.04;71.76
71297;SHT31;59082;50.658;4.608;2022-07-29T00:34:30;18.06;71.87
71297;SHT31;59082;50.658;4.608;2022-07-29T00:37:14;17.99;71.97
71297;SHT31;59082;50.658;4.608;2022-07-29T00:39:40;17.96;72.21
71297;SHT31;59082;50.658;4.608;2022-07-29T00:42:06;17.91;72.34
71297;SHT31;59082;50.658;4.608;2022-07-29T00:44:38;17.91;72.39
71297;SHT31;59082;50.658;4.608;2022-07-29T00:47:05;17.85;72.54
71297;SHT31;59082;50.658;4.608;2022-07-29T00:49:31;17.86;72.74
71297;SHT31;59082;50.658;4.608;2022-07-29T00:51:57;17.89;72.65
71297;SHT31;59082;50.658;4.608;2022-07-29T00:54:22;17.93;72.59
71297;SHT31;59082;50.658;4.608;2022-07-29T00:56:49;17.91;72.59
71297;SHT31;59082;50.658;4.608;2022-07-29T00:59:14;17.93;72.60
71297;SHT31;59082;50.658;4.608;2022-07-29T01:01:40;17.94;72.57
71297;SHT31;59082;50.658;4.608;2022-07-29T01:04:06;17.90;72.69
71297;SHT31;59082;50.658;4.608;2022-07-29T01:06:32;17.89;72.71
71297;SHT31;59082;50.658;4.608;2022-07-29T01:08:59;17.90;72.62
71297;SHT31;59082;50.658;4.608;2022-07-29T01:11:25;17.82;72.75
71297;SHT31;59082;50.658;4.608;2022-07-29T01:13:51;17.73;72.95
71297;SHT31;59082;50.658;4.608;2022-07-29T01:16:31;17.71;72.98
71297;SHT31;59082;50.658;4.608;2022-07-29T01:19:33;17.61;73.34
71297;SHT31;59082;50.658;4.608;2022-07-29T01:21:55;17.46;73.70
71297;SHT31;59082;50.658;4.608;2022-07-29T01:30:15;17.17;74.62
71297;SHT31;59082;50.658;4.608;2022-07-29T01:32:43;17.07;75.00
71297;SHT31;59082;50.658;4.608;2022-07-29T01:35:20;17.04;75.07
71297;SHT31;59082;50.658;4.608;2022-07-29T01:37:59;17.04;75.16
71297;SHT31;59082;50.658;4.608;2022-07-29T01:40:58;16.97;75.48
71297;SHT31;59082;50.658;4.608;2022-07-29T01:43:20;16.84;75.96
71297;SHT31;59082;50.658;4.608;2022-07-29T01:46:09;16.80;76.14
71297;SHT31;59082;50.658;4.608;2022-07-29T01:48:52;16.80;76.34
71297;SHT31;59082;50.658;4.608;2022-07-29T01:51:27;16.76;76.57
71297;SHT31;59082;50.658;4.608;2022-07-29T01:56:26;16.76;76.71
71297;SHT31;59082;50.658;4.608;2022-07-29T01:58:55;16.75;76.72
71297;SHT31;59082;50.658;4.608;2022-07-29T02:01:24;16.69;76.86
71297;SHT31;59082;50.658;4.608;2022-07-29T02:03:50;16.67;76.90
71297;SHT31;59082;50.658;4.608;2022-07-29T02:06:19;16.59;77.16
71297;SHT31;59082;50.658;4.608;2022-07-29T02:08:47;16.59;77.31
71297;SHT31;59082;50.658;4.608;2022-07-29T02:11:14;16.60;77.23
71297;SHT31;59082;50.658;4.608;2022-07-29T02:13:41;16.59;77.39
71297;SHT31;59082;50.658;4.608;2022-07-29T02:16:09;16.52;77.54
71297;SHT31;59082;50.658;4.608;2022-07-29T02:18:37;16.53;77.53
71297;SHT31;59082;50.658;4.608;2022-07-29T02:21:04;16.48;77.74
71297;SHT31;59082;50.658;4.608;2022-07-29T02:23:31;16.45;77.93
71297;SHT31;59082;50.658;4.608;2022-07-29T02:25:59;16.45;78.00
71297;SHT31;59082;50.658;4.608;2022-07-29T02:28:27;16.35;78.21
71297;SHT31;59082;50.658;4.608;2022-07-29T02:30:55;16.31;78.43
71297;SHT31;59082;50.658;4.608;2022-07-29T02:33:23;16.24;78.63
71297;SHT31;59082;50.658;4.608;2022-07-29T02:35:50;16.26;78.69
71297;SHT31;59082;50.658;4.608;2022-07-29T02:38:17;16.19;78.78
71297;SHT31;59082;50.658;4.608;2022-07-29T02:41:05;16.14;79.04
71297;SHT31;59082;50.658;4.608;2022-07-29T02:43:34;16.04;79.26
71297;SHT31;59082;50.658;4.608;2022-07-29T02:46:02;16.04;79.34
71297;SHT31;59082;50.658;4.608;2022-07-29T02:48:38;16.00;79.59
71297;SHT31;59082;50.658;4.608;2022-07-29T02:51:08;15.96;79.75
71297;SHT31;59082;50.658;4.608;2022-07-29T02:53:38;15.81;80.21
71297;SHT31;59082;50.658;4.608;2022-07-29T02:56:15;15.71;80.81
71297;SHT31;59082;50.658;4.608;2022-07-29T02:58:46;15.60;81.27
71297;SHT31;59082;50.658;4.608;2022-07-29T03:01:15;15.56;81.56
71297;SHT31;59082;50.658;4.608;2022-07-29T03:03:44;15.53;81.64
71297;SHT31;59082;50.658;4.608;2022-07-29T03:06:12;15.46;81.89
71297;SHT31;59082;50.658;4.608;2022-07-29T03:08:39;15.36;82.23
71297;SHT31;59082;50.658;4.608;2022-07-29T03:11:05;15.33;82.35
71297;SHT31;59082;50.658;4.608;2022-07-29T03:13:32;15.29;82.49
71297;SHT31;59082;50.658;4.608;2022-07-29T03:15:58;15.24;82.66
71297;SHT31;59082;50.658;4.608;2022-07-29T03:18:25;15.19;82.84
71297;SHT31;59082;50.658;4.608;2022-07-29T03:20:51;15.11;82.93
71297;SHT31;59082;50.658;4.608;2022-07-29T03:23:20;15.07;83.32
71297;SHT31;59082;50.658;4.608;2022-07-29T03:25:48;15.01;83.43
71297;SHT31;59082;50.658;4.608;2022-07-29T03:28:14;14.97;83.67
71297;SHT31;59082;50.658;4.608;2022-07-29T03:30:40;14.87;83.90
71297;SHT31;59082;50.658;4.608;2022-07-29T03:33:05;14.87;84.07
71297;SHT31;59082;50.658;4.608;2022-07-29T03:35:31;14.83;84.11
71297;SHT31;59082;50.658;4.608;2022-07-29T03:37:57;14.83;84.14
71297;SHT31;59082;50.658;4.608;2022-07-29T03:40:31;14.84;84.22
71297;SHT31;59082;50.658;4.608;2022-07-29T03:43:00;14.77;84.41
71297;SHT31;59082;50.658;4.608;2022-07-29T03:45:28;14.77;84.38
71297;SHT31;59082;50.658;4.608;2022-07-29T03:47:59;14.78;84.48
71297;SHT31;59082;50.658;4.608;2022-07-29T03:50:27;14.68;84.76
71297;SHT31;59082;50.658;4.608;2022-07-29T03:52:53;14.60;84.98
71297;SHT31;59082;50.658;4.608;2022-07-29T03:55:19;14.40;85.73
71297;SHT31;59082;50.658;4.608;2022-07-29T03:57:45;14.41;85.67
71297;SHT31;59082;50.658;4.608;2022-07-29T04:00:12;14.44;85.71
71297;SHT31;59082;50.658;4.608;2022-07-29T04:02:38;14.40;85.85
71297;SHT31;59082;50.658;4.608;2022-07-29T04:05:05;14.47;85.71
71297;SHT31;59082;50.658;4.608;2022-07-29T04:07:36;14.47;85.79
71297;SHT31;59082;50.658;4.608;2022-07-29T04:10:02;14.43;85.96
71297;SHT31;59082;50.658;4.608;2022-07-29T04:12:28;14.41;86.02
71297;SHT31;59082;50.658;4.608;2022-07-29T04:14:53;14.39;86.05
71297;SHT31;59082;50.658;4.608;2022-07-29T04:17:19;14.36;86.17
71297;SHT31;59082;50.658;4.608;2022-07-29T04:19:44;14.37;86.10
71297;SHT31;59082;50.658;4.608;2022-07-29T04:22:10;14.36;86.15
71297;SHT31;59082;50.658;4.608;2022-07-29T04:24:35;14.37;86.26
71297;SHT31;59082;50.658;4.608;2022-07-29T04:27:01;14.33;86.27
71297;SHT31;59082;50.658;4.608;2022-07-29T04:29:26;14.39;86.36
71297;SHT31;59082;50.658;4.608;2022-07-29T04:31:52;14.34;86.29
71297;SHT31;59082;50.658;4.608;2022-07-29T04:34:17;14.36;86.19
71297;SHT31;59082;50.658;4.608;2022-07-29T04:36:43;14.40;86.27
71297;SHT31;59082;50.658;4.608;2022-07-29T04:39:08;14.43;86.13
71297;SHT31;59082;50.658;4.608;2022-07-29T04:41:35;14.46;85.93
71297;SHT31;59082;50.658;4.608;2022-07-29T04:44:00;14.55;85.83
71297;SHT31;59082;50.658;4.608;2022-07-29T04:46:30;14.55;85.81
71297;SHT31;59082;50.658;4.608;2022-07-29T04:48:55;14.57;85.75
71297;SHT31;59082;50.658;4.608;2022-07-29T04:51:21;14.59;85.63
71297;SHT31;59082;50.658;4.608;2022-07-29T04:53:46;14.63;85.67
71297;SHT31;59082;50.658;4.608;2022-07-29T04:56:12;14.66;85.48
71297;SHT31;59082;50.658;4.608;2022-07-29T04:58:37;14.64;85.55
71297;SHT31;59082;50.658;4.608;2022-07-29T05:01:03;14.61;85.79
71297;SHT31;59082;50.658;4.608;2022-07-29T05:03:29;14.63;85.97
71297;SHT31;59082;50.658;4.608;2022-07-29T05:05:54;14.68;85.84
71297;SHT31;59082;50.658;4.608;2022-07-29T05:08:20;14.70;85.73
71297;SHT31;59082;50.658;4.608;2022-07-29T05:10:45;14.70;85.61
71297;SHT31;59082;50.658;4.608;2022-07-29T05:13:11;14.76;85.61
71297;SHT31;59082;50.658;4.608;2022-07-29T05:15:37;14.84;85.23
71297;SHT31;59082;50.658;4.608;2022-07-29T05:18:03;14.87;85.16
71297;SHT31;59082;50.658;4.608;2022-07-29T05:20:29;14.94;84.75
71297;SHT31;59082;50.658;4.608;2022-07-29T05:22:58;15.01;84.56
71297;SHT31;59082;50.658;4.608;2022-07-29T05:25:25;15.12;84.35
71297;SHT31;59082;50.658;4.608;2022-07-29T05:27:51;15.16;84.16
71297;SHT31;59082;50.658;4.608;2022-07-29T05:30:18;15.19;84.10
71297;SHT31;59082;50.658;4.608;2022-07-29T05:32:44;15.32;83.97
71297;SHT31;59082;50.658;4.608;2022-07-29T05:35:10;15.33;83.63
71297;SHT31;59082;50.658;4.608;2022-07-29T05:37:36;15.40;83.62
71297;SHT31;59082;50.658;4.608;2022-07-29T05:40:03;15.52;83.43
71297;SHT31;59082;50.658;4.608;2022-07-29T05:42:29;15.59;83.21
71297;SHT31;59082;50.658;4.608;2022-07-29T05:44:55;15.67;82.97
71297;SHT31;59082;50.658;4.608;2022-07-29T05:47:21;15.73;82.53
71297;SHT31;59082;50.658;4.608;2022-07-29T05:49:46;15.83;82.27
71297;SHT31;59082;50.658;4.608;2022-07-29T05:52:12;15.93;82.29
71297;SHT31;59082;50.658;4.608;2022-07-29T05:54:38;16.01;82.00
71297;SHT31;59082;50.658;4.608;2022-07-29T05:57:05;16.01;82.04
71297;SHT31;59082;50.658;4.608;2022-07-29T05:59:31;16.17;81.88
71297;SHT31;59082;50.658;4.608;2022-07-29T06:02:00;16.25;81.46
71297;SHT31;59082;50.658;4.608;2022-07-29T06:04:25;16.32;81.30
71297;SHT31;59082;50.658;4.608;2022-07-29T06:06:51;16.41;81.23
71297;SHT31;59082;50.658;4.608;2022-07-29T06:09:17;16.44;81.17
71297;SHT31;59082;50.658;4.608;2022-07-29T06:11:42;16.56;81.01
71297;SHT31;59082;50.658;4.608;2022-07-29T06:14:08;16.65;80.89
71297;SHT31;59082;50.658;4.608;2022-07-29T06:16:33;16.72;80.66
71297;SHT31;59082;50.658;4.608;2022-07-29T06:18:59;16.79;80.48
71297;SHT31;59082;50.658;4.608;2022-07-29T06:21:24;16.96;80.25
71297;SHT31;59082;50.658;4.608;2022-07-29T06:23:50;17.17;80.35
71297;SHT31;59082;50.658;4.608;2022-07-29T06:26:15;17.34;79.55
71297;SHT31;59082;50.658;4.608;2022-07-29T06:28:41;17.51;78.82
71297;SHT31;59082;50.658;4.608;2022-07-29T06:31:07;17.75;78.46
71297;SHT31;59082;50.658;4.608;2022-07-29T06:33:33;17.68;78.80
71297;SHT31;59082;50.658;4.608;2022-07-29T06:35:58;17.89;78.46
71297;SHT31;59082;50.658;4.608;2022-07-29T06:38:24;18.18;77.86
71297;SHT31;59082;50.658;4.608;2022-07-29T06:40:50;18.37;77.20
71297;SHT31;59082;50.658;4.608;2022-07-29T06:45:59;18.41;77.18
71297;SHT31;59082;50.658;4.608;2022-07-29T06:48:25;18.52;76.81
71297;SHT31;59082;50.658;4.608;2022-07-29T06:50:50;18.68;77.18
71297;SHT31;59082;50.658;4.608;2022-07-29T06:53:16;18.71;76.74
71297;SHT31;59082;50.658;4.608;2022-07-29T06:55:41;18.62;77.04
71297;SHT31;59082;50.658;4.608;2022-07-29T06:58:07;18.85;76.85
71297;SHT31;59082;50.658;4.608;2022-07-29T07:00:34;19.00;76.43
71297;SHT31;59082;50.658;4.608;2022-07-29T07:03:00;19.33;75.68
71297;SHT31;59082;50.658;4.608;2022-07-29T07:05:26;19.38;75.51
71297;SHT31;59082;50.658;4.608;2022-07-29T07:07:52;19.55;75.01
71297;SHT31;59082;50.658;4.608;2022-07-29T07:10:17;19.81;74.53
71297;SHT31;59082;50.658;4.608;2022-07-29T07:12:43;20.12;73.78
71297;SHT31;59082;50.658;4.608;2022-07-29T07:15:09;19.74;74.55
71297;SHT31;59082;50.658;4.608;2022-07-29T07:17:34;19.64;74.80
71297;SHT31;59082;50.658;4.608;2022-07-29T07:20:00;19.33;75.50
71297;SHT31;59082;50.658;4.608;2022-07-29T07:22:26;19.50;75.51
71297;SHT31;59082;50.658;4.608;2022-07-29T07:24:51;19.58;75.01
71297;SHT31;59082;50.658;4.608;2022-07-29T07:27:16;19.79;74.67
71297;SHT31;59082;50.658;4.608;2022-07-29T07:29:42;20.04;74.46
71297;SHT31;59082;50.658;4.608;2022-07-29T07:32:08;20.32;73.92
71297;SHT31;59082;50.658;4.608;2022-07-29T07:34:34;20.53;73.21
71297;SHT31;59082;50.658;4.608;2022-07-29T07:36:59;20.23;73.45
71297;SHT31;59082;50.658;4.608;2022-07-29T07:39:25;20.46;72.92
71297;SHT31;59082;50.658;4.608;2022-07-29T07:41:51;20.80;72.27
71297;SHT31;59082;50.658;4.608;2022-07-29T07:44:17;21.05;71.18
71297;SHT31;59082;50.658;4.608;2022-07-29T07:46:43;21.29;70.96
71297;SHT31;59082;50.658;4.608;2022-07-29T07:49:10;21.69;70.01
71297;SHT31;59082;50.658;4.608;2022-07-29T07:51:35;21.97;70.65
71297;SHT31;59082;50.658;4.608;2022-07-29T07:54:02;21.73;70.42
71297;SHT31;59082;50.658;4.608;2022-07-29T07:56:28;21.71;70.40
71297;SHT31;59082;50.658;4.608;2022-07-29T07:58:53;21.87;70.44
71297;SHT31;59082;50.658;4.608;2022-07-29T08:01:19;21.76;70.46
71297;SHT31;59082;50.658;4.608;2022-07-29T08:03:49;21.97;70.63
71297;SHT31;59082;50.658;4.608;2022-07-29T08:06:15;22.18;69.30
71297;SHT31;59082;50.658;4.608;2022-07-29T08:08:40;22.70;69.16
71297;SHT31;59082;50.658;4.608;2022-07-29T08:11:06;22.89;68.32
71297;SHT31;59082;50.658;4.608;2022-07-29T08:13:32;22.36;67.95
71297;SHT31;59082;50.658;4.608;2022-07-29T08:15:59;22.69;68.08
71297;SHT31;59082;50.658;4.608;2022-07-29T08:18:28;22.79;67.43
71297;SHT31;59082;50.658;4.608;2022-07-29T08:20:55;23.31;66.13
71297;SHT31;59082;50.658;4.608;2022-07-29T08:23:21;23.51;66.87
71297;SHT31;59082;50.658;4.608;2022-07-29T08:25:49;23.54;66.52
71297;SHT31;59082;50.658;4.608;2022-07-29T08:28:15;24.00;66.20
71297;SHT31;59082;50.658;4.608;2022-07-29T08:30:40;24.12;65.13
71297;SHT31;59082;50.658;4.608;2022-07-29T08:33:06;24.04;65.21
71297;SHT31;59082;50.658;4.608;2022-07-29T08:35:32;24.34;64.12
71297;SHT31;59082;50.658;4.608;2022-07-29T08:37:57;24.64;63.51
71297;SHT31;59082;50.658;4.608;2022-07-29T08:40:23;25.13;62.81
71297;SHT31;59082;50.658;4.608;2022-07-29T08:42:50;25.63;61.37
71297;SHT31;59082;50.658;4.608;2022-07-29T08:45:16;25.89;60.79
71297;SHT31;59082;50.658;4.608;2022-07-29T08:47:44;25.28;61.32
71297;SHT31;59082;50.658;4.608;2022-07-29T08:50:10;24.79;62.77
71297;SHT31;59082;50.658;4.608;2022-07-29T08:52:38;24.67;63.48
71297;SHT31;59082;50.658;4.608;2022-07-29T08:55:06;25.02;62.67
71297;SHT31;59082;50.658;4.608;2022-07-29T08:57:33;25.26;62.54
71297;SHT31;59082;50.658;4.608;2022-07-29T09:00:00;25.02;62.15
71297;SHT31;59082;50.658;4.608;2022-07-29T09:02:28;25.58;61.69
71297;SHT31;59082;50.658;4.608;2022-07-29T09:04:56;25.61;61.52
71297;SHT31;59082;50.658;4.608;2022-07-29T09:07:24;25.65;61.51
71297;SHT31;59082;50.658;4.608;2022-07-29T09:09:50;25.71;60.93
71297;SHT31;59082;50.658;4.608;2022-07-29T09:12:16;26.37;60.26
71297;SHT31;59082;50.658;4.608;2022-07-29T09:14:41;26.53;59.27
71297;SHT31;59082;50.658;4.608;2022-07-29T09:17:07;26.69;59.10
71297;SHT31;59082;50.658;4.608;2022-07-29T09:19:35;25.92;58.82
71297;SHT31;59082;50.658;4.608;2022-07-29T09:22:03;26.73;58.92
71297;SHT31;59082;50.658;4.608;2022-07-29T09:26:59;26.92;58.23
71297;SHT31;59082;50.658;4.608;2022-07-29T09:29:25;28.10;57.14
71297;SHT31;59082;50.658;4.608;2022-07-29T09:31:52;27.83;55.80
71297;SHT31;59082;50.658;4.608;2022-07-29T09:34:26;27.93;54.66
71297;SHT31;59082;50.658;4.608;2022-07-29T09:36:54;27.86;55.49
71297;SHT31;59082;50.658;4.608;2022-07-29T09:39:34;27.73;57.62
71297;SHT31;59082;50.658;4.608;2022-07-29T09:42:05;27.32;55.72
71297;SHT31;59082;50.658;4.608;2022-07-29T09:44:48;27.36;55.99
71297;SHT31;59082;50.658;4.608;2022-07-29T09:47:17;28.32;54.80
71297;SHT31;59082;50.658;4.608;2022-07-29T09:52:21;30.24;53.29
71297;SHT31;59082;50.658;4.608;2022-07-29T09:54:48;30.54;49.84
71297;SHT31;59082;50.658;4.608;2022-07-29T09:57:25;28.97;51.62
71297;SHT31;59082;50.658;4.608;2022-07-29T09:59:59;29.37;52.14
71297;SHT31;59082;50.658;4.608;2022-07-29T10:02:32;29.38;51.98
71297;SHT31;59082;50.658;4.608;2022-07-29T10:04:59;30.34;52.24
71297;SHT31;59082;50.658;4.608;2022-07-29T10:07:26;30.86;49.90
71297;SHT31;59082;50.658;4.608;2022-07-29T10:09:56;30.81;49.40
71297;SHT31;59082;50.658;4.608;2022-07-29T10:12:23;31.78;47.87
71297;SHT31;59082;50.658;4.608;2022-07-29T10:14:49;32.43;47.26
71297;SHT31;59082;50.658;4.608;2022-07-29T10:17:16;31.64;48.28
71297;SHT31;59082;50.658;4.608;2022-07-29T10:19:42;31.41;48.34
71297;SHT31;59082;50.658;4.608;2022-07-29T10:22:09;30.60;50.07
71297;SHT31;59082;50.658;4.608;2022-07-29T10:24:36;29.96;51.03
71297;SHT31;59082;50.658;4.608;2022-07-29T10:27:04;30.89;50.10
71297;SHT31;59082;50.658;4.608;2022-07-29T10:29:30;30.98;49.25
71297;SHT31;59082;50.658;4.608;2022-07-29T10:35:18;33.31;46.04
71297;SHT31;59082;50.658;4.608;2022-07-29T10:41:12;34.07;44.24
71297;SHT31;59082;50.658;4.608;2022-07-29T10:44:04;32.86;45.57
71297;SHT31;59082;50.658;4.608;2022-07-29T10:46:38;33.62;45.42
71297;SHT31;59082;50.658;4.608;2022-07-29T10:49:19;34.28;43.91
71297;SHT31;59082;50.658;4.608;2022-07-29T10:57:17;34.10;44.23
71297;SHT31;59082;50.658;4.608;2022-07-29T10:59:46;33.24;45.72
71297;SHT31;59082;50.658;4.608;2022-07-29T11:07:22;29.71;49.45
71297;SHT31;59082;50.658;4.608;2022-07-29T11:15:04;34.06;43.46
71297;SHT31;59082;50.658;4.608;2022-07-29T11:22:59;36.76;40.68
71297;SHT31;59082;50.658;4.608;2022-07-29T11:25:25;37.35;40.13
71297;SHT31;59082;50.658;4.608;2022-07-29T11:27:52;37.55;39.74
71297;SHT31;59082;50.658;4.608;2022-07-29T11:30:18;37.21;40.03
71297;SHT31;59082;50.658;4.608;2022-07-29T11:32:44;38.95;39.13
71297;SHT31;59082;50.658;4.608;2022-07-29T11:37:35;35.54;42.37
71297;SHT31;59082;50.658;4.608;2022-07-29T11:45:06;33.38;44.26
71297;SHT31;59082;50.658;4.608;2022-07-29T11:47:34;35.22;41.79
71297;SHT31;59082;50.658;4.608;2022-07-29T11:50:02;34.33;43.24
71297;SHT31;59082;50.658;4.608;2022-07-29T11:52:41;37.89;39.30
71297;SHT31;59082;50.658;4.608;2022-07-29T11:55:19;36.56;39.97
71297;SHT31;59082;50.658;4.608;2022-07-29T11:57:53;38.55;38.54
71297;SHT31;59082;50.658;4.608;2022-07-29T12:00:25;38.76;38.80
71297;SHT31;59082;50.658;4.608;2022-07-29T12:02:52;40.63;36.67
71297;SHT31;59082;50.658;4.608;2022-07-29T12:05:18;38.23;38.18
71297;SHT31;59082;50.658;4.608;2022-07-29T12:07:44;35.09;41.58
71297;SHT31;59082;50.658;4.608;2022-07-29T12:10:10;33.52;42.99
71297;SHT31;59082;50.658;4.608;2022-07-29T12:12:36;33.03;43.60
71297;SHT31;59082;50.658;4.608;2022-07-29T12:15:19;35.84;41.07
71297;SHT31;59082;50.658;4.608;2022-07-29T12:17:49;38.00;39.78
71297;SHT31;59082;50.658;4.608;2022-07-29T12:20:35;41.59;35.96
71297;SHT31;59082;50.658;4.608;2022-07-29T12:23:04;36.08;40.63
71297;SHT31;59082;50.658;4.608;2022-07-29T12:25:33;33.59;43.18
71297;SHT31;59082;50.658;4.608;2022-07-29T12:28:00;32.16;45.08
71297;SHT31;59082;50.658;4.608;2022-07-29T12:30:47;32.09;45.82
71297;SHT31;59082;50.658;4.608;2022-07-29T12:33:31;33.94;43.33
71297;SHT31;59082;50.658;4.608;2022-07-29T12:35:59;38.96;38.37
71297;SHT31;59082;50.658;4.608;2022-07-29T12:38:25;37.21;39.66
71297;SHT31;59082;50.658;4.608;2022-07-29T12:40:53;35.06;41.84
71297;SHT31;59082;50.658;4.608;2022-07-29T12:43:20;33.48;44.80
71297;SHT31;59082;50.658;4.608;2022-07-29T12:45:49;31.53;45.82
71297;SHT31;59082;50.658;4.608;2022-07-29T12:48:16;30.51;47.25
71297;SHT31;59082;50.658;4.608;2022-07-29T12:50:55;29.11;50.01
71297;SHT31;59082;50.658;4.608;2022-07-29T12:53:21;28.18;51.07
71297;SHT31;59082;50.658;4.608;2022-07-29T12:55:49;27.80;51.39
71297;SHT31;59082;50.658;4.608;2022-07-29T12:58:36;27.67;51.37
71297;SHT31;59082;50.658;4.608;2022-07-29T13:01:11;28.80;49.67
71297;SHT31;59082;50.658;4.608;2022-07-29T13:03:54;31.33;46.71
71297;SHT31;59082;50.658;4.608;2022-07-29T13:06:42;33.42;44.23
71297;SHT31;59082;50.658;4.608;2022-07-29T13:11:49;35.71;41.28
71297;SHT31;59082;50.658;4.608;2022-07-29T13:14:33;34.12;43.28
71297;SHT31;59082;50.658;4.608;2022-07-29T13:17:08;34.28;43.03
71297;SHT31;59082;50.658;4.608;2022-07-29T13:22:07;33.93;43.05
71297;SHT31;59082;50.658;4.608;2022-07-29T13:24:33;35.54;41.82
71297;SHT31;59082;50.658;4.608;2022-07-29T13:26:59;34.50;41.65
71297;SHT31;59082;50.658;4.608;2022-07-29T13:29:25;36.74;40.22
71297;SHT31;59082;50.658;4.608;2022-07-29T13:31:52;37.96;39.25
71297;SHT31;59082;50.658;4.608;2022-07-29T13:34:17;38.03;39.10
71297;SHT31;59082;50.658;4.608;2022-07-29T13:36:44;38.27;37.99
71297;SHT31;59082;50.658;4.608;2022-07-29T13:39:10;40.12;35.65
71297;SHT31;59082;50.658;4.608;2022-07-29T13:41:36;33.59;43.06
71297;SHT31;59082;50.658;4.608;2022-07-29T13:44:02;31.25;45.75
71297;SHT31;59082;50.658;4.608;2022-07-29T13:46:27;33.54;44.99
71297;SHT31;59082;50.658;4.608;2022-07-29T13:48:53;40.28;36.48
71297;SHT31;59082;50.658;4.608;2022-07-29T13:51:18;40.40;36.55
71297;SHT31;59082;50.658;4.608;2022-07-29T13:53:44;34.71;40.74
71297;SHT31;59082;50.658;4.608;2022-07-29T13:56:09;30.93;45.71
71297;SHT31;59082;50.658;4.608;2022-07-29T13:58:35;29.80;46.32
71297;SHT31;59082;50.658;4.608;2022-07-29T14:01:01;29.73;47.31
71297;SHT31;59082;50.658;4.608;2022-07-29T14:03:26;29.72;47.45
71297;SHT31;59082;50.658;4.608;2022-07-29T14:05:53;34.79;40.46
71297;SHT31;59082;50.658;4.608;2022-07-29T14:08:18;31.88;44.67
71297;SHT31;59082;50.658;4.608;2022-07-29T14:10:44;31.15;45.18
71297;SHT31;59082;50.658;4.608;2022-07-29T14:13:09;30.61;46.83
71297;SHT31;59082;50.658;4.608;2022-07-29T14:15:35;30.13;46.37
71297;SHT31;59082;50.658;4.608;2022-07-29T14:18:00;29.42;47.62
71297;SHT31;59082;50.658;4.608;2022-07-29T14:20:26;34.31;42.73
71297;SHT31;59082;50.658;4.608;2022-07-29T14:22:55;36.79;38.87
71297;SHT31;59082;50.658;4.608;2022-07-29T14:25:21;40.35;35.58
71297;SHT31;59082;50.658;4.608;2022-07-29T14:27:47;34.51;40.28
71297;SHT31;59082;50.658;4.608;2022-07-29T14:30:13;30.60;45.43
71297;SHT31;59082;50.658;4.608;2022-07-29T14:32:38;28.80;47.67
71297;SHT31;59082;50.658;4.608;2022-07-29T14:35:05;29.06;47.53
71297;SHT31;59082;50.658;4.608;2022-07-29T14:37:31;29.13;47.75
71297;SHT31;59082;50.658;4.608;2022-07-29T14:39:56;28.29;49.26
71297;SHT31;59082;50.658;4.608;2022-07-29T14:42:25;27.53;50.31
71297;SHT31;59082;50.658;4.608;2022-07-29T14:44:50;27.53;50.16
71297;SHT31;59082;50.658;4.608;2022-07-29T14:47:16;37.83;38.45
71297;SHT31;59082;50.658;4.608;2022-07-29T14:49:41;39.25;37.28
71297;SHT31;59082;50.658;4.608;2022-07-29T14:52:07;34.43;39.97
71297;SHT31;59082;50.658;4.608;2022-07-29T14:54:32;31.02;44.29
71297;SHT31;59082;50.658;4.608;2022-07-29T14:56:58;29.06;47.13
71297;SHT31;59082;50.658;4.608;2022-07-29T14:59:23;28.00;48.80
71297;SHT31;59082;50.658;4.608;2022-07-29T15:01:49;27.94;49.64
71297;SHT31;59082;50.658;4.608;2022-07-29T15:04:14;36.98;39.07
71297;SHT31;59082;50.658;4.608;2022-07-29T15:06:40;43.53;33.68
71297;SHT31;59082;50.658;4.608;2022-07-29T15:09:06;34.44;40.60
71297;SHT31;59082;50.658;4.608;2022-07-29T15:11:31;33.99;41.08
71297;SHT31;59082;50.658;4.608;2022-07-29T15:13:57;30.55;45.50
71297;SHT31;59082;50.658;4.608;2022-07-29T15:16:22;29.99;45.93
71297;SHT31;59082;50.658;4.608;2022-07-29T15:18:49;29.02;47.50
71297;SHT31;59082;50.658;4.608;2022-07-29T15:21:14;29.38;47.44
71297;SHT31;59082;50.658;4.608;2022-07-29T15:23:40;28.99;47.99
71297;SHT31;59082;50.658;4.608;2022-07-29T15:26:06;29.04;47.92
71297;SHT31;59082;50.658;4.608;2022-07-29T15:28:31;39.71;36.36
71297;SHT31;59082;50.658;4.608;2022-07-29T15:30:57;43.34;32.67
71297;SHT31;59082;50.658;4.608;2022-07-29T15:33:22;46.31;31.12
71297;SHT31;59082;50.658;4.608;2022-07-29T15:35:48;48.25;29.15
71297;SHT31;59082;50.658;4.608;2022-07-29T15:38:15;43.67;31.54
71297;SHT31;59082;50.658;4.608;2022-07-29T15:40:41;43.23;32.51
71297;SHT31;59082;50.658;4.608;2022-07-29T15:43:08;43.16;31.89
71297;SHT31;59082;50.658;4.608;2022-07-29T15:45:39;43.53;31.92
71297;SHT31;59082;50.658;4.608;2022-07-29T15:48:06;45.08;31.17
71297;SHT31;59082;50.658;4.608;2022-07-29T15:50:32;44.56;31.17
71297;SHT31;59082;50.658;4.608;2022-07-29T15:52:57;47.52;29.11
71297;SHT31;59082;50.658;4.608;2022-07-29T15:55:23;42.85;31.77
71297;SHT31;59082;50.658;4.608;2022-07-29T15:57:48;40.73;33.08
71297;SHT31;59082;50.658;4.608;2022-07-29T16:00:14;40.15;33.12
71297;SHT31;59082;50.658;4.608;2022-07-29T16:02:42;41.78;32.07
71297;SHT31;59082;50.658;4.608;2022-07-29T16:05:07;41.05;32.28
71297;SHT31;59082;50.658;4.608;2022-07-29T16:07:33;40.05;32.65
71297;SHT31;59082;50.658;4.608;2022-07-29T16:09:59;38.71;33.49
71297;SHT31;59082;50.658;4.608;2022-07-29T16:12:24;39.57;32.44
71297;SHT31;59082;50.658;4.608;2022-07-29T16:14:50;39.42;33.17
71297;SHT31;59082;50.658;4.608;2022-07-29T16:17:18;37.62;34.48
71297;SHT31;59082;50.658;4.608;2022-07-29T16:19:44;34.84;37.23
71297;SHT31;59082;50.658;4.608;2022-07-29T16:22:10;33.14;38.39
71297;SHT31;59082;50.658;4.608;2022-07-29T16:24:35;31.47;40.34
71297;SHT31;59082;50.658;4.608;2022-07-29T16:27:01;31.12;42.03
71297;SHT31;59082;50.658;4.608;2022-07-29T16:29:26;31.27;43.21